sensor_id;sensor_type;location;lat;lon;timestamp;P1;durP1;ratioP1;P2;durP2;ratioP2
75459;SDS011;64039;53.060;9.342;2023-12-20T00:02:14;8.75;;;1.15;;
75459;SDS011;64039;53.060;9.342;2023-12-20T00:04:39;9.27;;;1.42;;
75459;SDS011;64039;53.060;9.342;2023-12-20T00:07:05;7.43;;;1.02;;
75459;SDS011;64039;53.060;9.342;2023-12-20T00:09:30;10.38;;;1.38;;
75459;SDS011;64039;53.060;9.342;2023-12-20T00:11:56;5.55;;;1.42;;
75459;SDS011;64039;53.060;9.342;2023-12-20T00:14:21;10.65;;;1.38;;
75459;SDS011;64039;53.060;9.342;2023-12-20T00:16:47;8.45;;;1.58;;
75459;SDS011;64039;53.060;9.342;2023-12-20T00:19:12;9.65;;;1.25;;
75459;SDS011;64039;53.060;9.342;2023-12-20T00:21:38;7.32;;;1.50;;
75459;SDS011;64039;53.060;9.342;2023-12-20T00:24:03;12.35;;;1.40;;
75459;SDS011;64039;53.060;9.342;2023-12-20T00:26:29;8.57;;;1.10;;
75459;SDS011;64039;53.060;9.342;2023-12-20T00:28:55;11.32;;;1.13;;
75459;SDS011;64039;53.060;9.342;2023-12-20T00:31:20;9.60;;;1.35;;
75459;SDS011;64039;53.060;9.342;2023-12-20T00:33:46;9.60;;;1.80;;
75459;SDS011;64039;53.060;9.342;2023-12-20T00:36:12;15.40;;;1.38;;
75459;SDS011;64039;53.060;9.342;2023-12-20T00:38:37;11.55;;;1.40;;
75459;SDS011;64039;53.060;9.342;2023-12-20T00:41:03;12.90;;;1.75;;
75459;SDS011;64039;53.060;9.342;2023-12-20T00:43:28;10.25;;;1.08;;
75459;SDS011;64039;53.060;9.342;2023-12-20T00:45:54;10.20;;;1.20;;
75459;SDS011;64039;53.060;9.342;2023-12-20T00:48:20;7.53;;;1.17;;
75459;SDS011;64039;53.060;9.342;2023-12-20T00:50:46;9.02;;;1.00;;
75459;SDS011;64039;53.060;9.342;2023-12-20T00:53:11;9.30;;;1.00;;
75459;SDS011;64039;53.060;9.342;2023-12-20T00:55:37;9.50;;;1.45;;
75459;SDS011;64039;53.060;9.342;2023-12-20T00:58:02;7.28;;;1.42;;
75459;SDS011;64039;53.060;9.342;2023-12-20T01:00:28;8.82;;;1.20;;
75459;SDS011;64039;53.060;9.342;2023-12-20T01:02:53;8.57;;;1.13;;
75459;SDS011;64039;53.060;9.342;2023-12-20T01:05:19;6.50;;;1.17;;
75459;SDS011;64039;53.060;9.342;2023-12-20T01:07:44;6.50;;;1.48;;
75459;SDS011;64039;53.060;9.342;2023-12-20T01:10:10;7.10;;;1.02;;
75459;SDS011;64039;53.060;9.342;2023-12-20T01:12:36;10.43;;;1.30;;
75459;SDS011;64039;53.060;9.342;2023-12-20T01:15:02;9.70;;;1.40;;
75459;SDS011;64039;53.060;9.342;2023-12-20T01:17:27;11.00;;;1.45;;
75459;SDS011;64039;53.060;9.342;2023-12-20T01:19:53;11.15;;;1.42;;
75459;SDS011;64039;53.060;9.342;2023-12-20T01:22:18;6.50;;;1.15;;
75459;SDS011;64039;53.060;9.342;2023-12-20T01:24:44;12.93;;;1.80;;
75459;SDS011;64039;53.060;9.342;2023-12-20T01:27:09;7.50;;;1.15;;
75459;SDS011;64039;53.060;9.342;2023-12-20T01:29:35;11.73;;;1.52;;
75459;SDS011;64039;53.060;9.342;2023-12-20T01:32:00;7.88;;;1.15;;
75459;SDS011;64039;53.060;9.342;2023-12-20T01:34:26;8.73;;;1.40;;
75459;SDS011;64039;53.060;9.342;2023-12-20T01:36:51;11.65;;;1.15;;
75459;SDS011;64039;53.060;9.342;2023-12-20T01:39:17;6.75;;;1.27;;
75459;SDS011;64039;53.060;9.342;2023-12-20T01:41:43;14.85;;;1.60;;
75459;SDS011;64039;53.060;9.342;2023-12-20T01:44:08;5.95;;;1.00;;
75459;SDS011;64039;53.060;9.342;2023-12-20T01:46:34;12.95;;;1.80;;
75459;SDS011;64039;53.060;9.342;2023-12-20T01:48:59;7.93;;;1.02;;
75459;SDS011;64039;53.060;9.342;2023-12-20T01:51:25;10.57;;;1.27;;
75459;SDS011;64039;53.060;9.342;2023-12-20T01:53:52;13.68;;;1.40;;
75459;SDS011;64039;53.060;9.342;2023-12-20T01:56:20;7.03;;;1.10;;
75459;SDS011;64039;53.060;9.342;2023-12-20T01:58:46;11.18;;;1.30;;
75459;SDS011;64039;53.060;9.342;2023-12-20T02:01:12;12.10;;;1.13;;
75459;SDS011;64039;53.060;9.342;2023-12-20T02:03:39;11.05;;;1.23;;
75459;SDS011;64039;53.060;9.342;2023-12-20T02:06:08;8.38;;;1.23;;
75459;SDS011;64039;53.060;9.342;2023-12-20T02:08:34;9.52;;;1.33;;
75459;SDS011;64039;53.060;9.342;2023-12-20T02:11:00;8.80;;;1.05;;
75459;SDS011;64039;53.060;9.342;2023-12-20T02:13:26;5.65;;;1.13;;
75459;SDS011;64039;53.060;9.342;2023-12-20T02:15:52;9.82;;;1.20;;
75459;SDS011;64039;53.060;9.342;2023-12-20T02:18:17;9.00;;;1.10;;
75459;SDS011;64039;53.060;9.342;2023-12-20T02:20:43;6.40;;;0.95;;
75459;SDS011;64039;53.060;9.342;2023-12-20T02:23:09;11.70;;;1.25;;
75459;SDS011;64039;53.060;9.342;2023-12-20T02:25:34;5.05;;;1.20;;
75459;SDS011;64039;53.060;9.342;2023-12-20T02:28:00;6.40;;;1.00;;
75459;SDS011;64039;53.060;9.342;2023-12-20T02:30:26;7.10;;;0.95;;
75459;SDS011;64039;53.060;9.342;2023-12-20T02:32:51;7.85;;;1.30;;
75459;SDS011;64039;53.060;9.342;2023-12-20T02:35:18;6.72;;;1.20;;
75459;SDS011;64039;53.060;9.342;2023-12-20T02:37:43;9.43;;;1.30;;
75459;SDS011;64039;53.060;9.342;2023-12-20T02:40:09;11.15;;;1.75;;
75459;SDS011;64039;53.060;9.342;2023-12-20T02:42:37;6.78;;;1.20;;
75459;SDS011;64039;53.060;9.342;2023-12-20T02:45:02;13.48;;;1.27;;
75459;SDS011;64039;53.060;9.342;2023-12-20T02:47:27;11.07;;;1.15;;
75459;SDS011;64039;53.060;9.342;2023-12-20T02:49:55;12.60;;;1.48;;
75459;SDS011;64039;53.060;9.342;2023-12-20T02:52:20;6.15;;;1.15;;
75459;SDS011;64039;53.060;9.342;2023-12-20T02:54:47;7.82;;;1.10;;
75459;SDS011;64039;53.060;9.342;2023-12-20T02:57:12;10.27;;;1.08;;
75459;SDS011;64039;53.060;9.342;2023-12-20T02:59:38;9.02;;;0.93;;
75459;SDS011;64039;53.060;9.342;2023-12-20T03:02:03;7.25;;;0.95;;
75459;SDS011;64039;53.060;9.342;2023-12-20T03:04:29;8.45;;;1.38;;
75459;SDS011;64039;53.060;9.342;2023-12-20T03:06:54;7.53;;;1.50;;
75459;SDS011;64039;53.060;9.342;2023-12-20T03:09:19;5.40;;;1.30;;
75459;SDS011;64039;53.060;9.342;2023-12-20T03:11:45;7.68;;;1.88;;
75459;SDS011;64039;53.060;9.342;2023-12-20T03:14:10;6.03;;;1.20;;
75459;SDS011;64039;53.060;9.342;2023-12-20T03:16:36;12.27;;;1.30;;
75459;SDS011;64039;53.060;9.342;2023-12-20T03:19:01;10.82;;;1.27;;
75459;SDS011;64039;53.060;9.342;2023-12-20T03:21:27;6.88;;;1.30;;
75459;SDS011;64039;53.060;9.342;2023-12-20T03:23:52;10.18;;;1.15;;
75459;SDS011;64039;53.060;9.342;2023-12-20T03:26:17;10.07;;;1.35;;
75459;SDS011;64039;53.060;9.342;2023-12-20T03:28:44;11.00;;;1.50;;
75459;SDS011;64039;53.060;9.342;2023-12-20T03:31:09;13.18;;;1.40;;
75459;SDS011;64039;53.060;9.342;2023-12-20T03:33:35;8.68;;;1.38;;
75459;SDS011;64039;53.060;9.342;2023-12-20T03:36:01;12.88;;;1.40;;
75459;SDS011;64039;53.060;9.342;2023-12-20T03:38:27;7.70;;;1.40;;
75459;SDS011;64039;53.060;9.342;2023-12-20T03:40:52;10.35;;;1.67;;
75459;SDS011;64039;53.060;9.342;2023-12-20T03:43:17;9.43;;;1.23;;
75459;SDS011;64039;53.060;9.342;2023-12-20T03:45:43;7.78;;;1.35;;
75459;SDS011;64039;53.060;9.342;2023-12-20T03:48:08;11.43;;;1.50;;
75459;SDS011;64039;53.060;9.342;2023-12-20T03:50:34;7.03;;;1.20;;
75459;SDS011;64039;53.060;9.342;2023-12-20T03:53:00;11.10;;;1.45;;
75459;SDS011;64039;53.060;9.342;2023-12-20T03:55:26;11.45;;;1.70;;
75459;SDS011;64039;53.060;9.342;2023-12-20T03:57:51;8.77;;;1.70;;
75459;SDS011;64039;53.060;9.342;2023-12-20T04:00:17;10.88;;;1.75;;
75459;SDS011;64039;53.060;9.342;2023-12-20T04:02:42;10.07;;;1.92;;
75459;SDS011;64039;53.060;9.342;2023-12-20T04:05:09;11.10;;;2.10;;
75459;SDS011;64039;53.060;9.342;2023-12-20T04:07:35;7.82;;;1.55;;
75459;SDS011;64039;53.060;9.342;2023-12-20T04:10:01;5.90;;;1.50;;
75459;SDS011;64039;53.060;9.342;2023-12-20T04:12:29;11.93;;;1.75;;
75459;SDS011;64039;53.060;9.342;2023-12-20T04:14:56;8.35;;;1.70;;
75459;SDS011;64039;53.060;9.342;2023-12-20T04:17:22;10.07;;;1.85;;
75459;SDS011;64039;53.060;9.342;2023-12-20T04:19:50;10.25;;;1.65;;
75459;SDS011;64039;53.060;9.342;2023-12-20T04:22:19;11.63;;;2.03;;
75459;SDS011;64039;53.060;9.342;2023-12-20T04:24:44;8.77;;;1.70;;
75459;SDS011;64039;53.060;9.342;2023-12-20T04:27:10;10.68;;;1.90;;
75459;SDS011;64039;53.060;9.342;2023-12-20T04:29:36;9.57;;;2.03;;
75459;SDS011;64039;53.060;9.342;2023-12-20T04:32:02;9.32;;;1.90;;
75459;SDS011;64039;53.060;9.342;2023-12-20T04:34:27;6.95;;;1.90;;
75459;SDS011;64039;53.060;9.342;2023-12-20T04:36:53;12.38;;;2.20;;
75459;SDS011;64039;53.060;9.342;2023-12-20T04:39:18;9.57;;;1.90;;
75459;SDS011;64039;53.060;9.342;2023-12-20T04:41:44;9.95;;;1.70;;
75459;SDS011;64039;53.060;9.342;2023-12-20T04:44:09;8.27;;;2.00;;
75459;SDS011;64039;53.060;9.342;2023-12-20T04:46:35;12.68;;;2.20;;
75459;SDS011;64039;53.060;9.342;2023-12-20T04:49:00;11.18;;;1.83;;
75459;SDS011;64039;53.060;9.342;2023-12-20T04:51:26;15.80;;;2.28;;
75459;SDS011;64039;53.060;9.342;2023-12-20T04:53:52;13.38;;;2.10;;
75459;SDS011;64039;53.060;9.342;2023-12-20T04:56:17;8.40;;;1.77;;
75459;SDS011;64039;53.060;9.342;2023-12-20T04:58:43;11.38;;;2.20;;
75459;SDS011;64039;53.060;9.342;2023-12-20T05:01:08;11.90;;;2.10;;
75459;SDS011;64039;53.060;9.342;2023-12-20T05:03:34;9.25;;;2.00;;
75459;SDS011;64039;53.060;9.342;2023-12-20T05:06:00;14.30;;;2.03;;
75459;SDS011;64039;53.060;9.342;2023-12-20T05:08:25;13.60;;;2.10;;
75459;SDS011;64039;53.060;9.342;2023-12-20T05:10:54;12.00;;;1.80;;
75459;SDS011;64039;53.060;9.342;2023-12-20T05:13:20;12.02;;;1.92;;
75459;SDS011;64039;53.060;9.342;2023-12-20T05:15:46;13.93;;;2.33;;
75459;SDS011;64039;53.060;9.342;2023-12-20T05:18:11;18.05;;;2.25;;
75459;SDS011;64039;53.060;9.342;2023-12-20T05:20:37;13.45;;;2.10;;
75459;SDS011;64039;53.060;9.342;2023-12-20T05:23:03;11.48;;;2.05;;
75459;SDS011;64039;53.060;9.342;2023-12-20T05:25:28;11.90;;;2.35;;
75459;SDS011;64039;53.060;9.342;2023-12-20T05:27:54;9.18;;;2.08;;
75459;SDS011;64039;53.060;9.342;2023-12-20T05:30:19;12.45;;;2.08;;
75459;SDS011;64039;53.060;9.342;2023-12-20T05:32:45;9.98;;;2.00;;
75459;SDS011;64039;53.060;9.342;2023-12-20T05:35:10;11.48;;;2.30;;
75459;SDS011;64039;53.060;9.342;2023-12-20T05:37:36;15.85;;;2.25;;
75459;SDS011;64039;53.060;9.342;2023-12-20T05:40:01;14.75;;;2.05;;
75459;SDS011;64039;53.060;9.342;2023-12-20T05:42:27;13.05;;;2.42;;
75459;SDS011;64039;53.060;9.342;2023-12-20T05:44:53;14.10;;;2.60;;
75459;SDS011;64039;53.060;9.342;2023-12-20T05:47:18;12.65;;;2.58;;
75459;SDS011;64039;53.060;9.342;2023-12-20T05:49:45;10.85;;;1.92;;
75459;SDS011;64039;53.060;9.342;2023-12-20T05:52:10;12.70;;;2.28;;
75459;SDS011;64039;53.060;9.342;2023-12-20T05:54:36;12.38;;;2.00;;
75459;SDS011;64039;53.060;9.342;2023-12-20T05:57:01;13.27;;;2.40;;
75459;SDS011;64039;53.060;9.342;2023-12-20T05:59:27;12.43;;;2.10;;
75459;SDS011;64039;53.060;9.342;2023-12-20T06:01:53;13.70;;;2.60;;
75459;SDS011;64039;53.060;9.342;2023-12-20T06:04:18;13.95;;;2.08;;
75459;SDS011;64039;53.060;9.342;2023-12-20T06:06:44;9.70;;;1.85;;
75459;SDS011;64039;53.060;9.342;2023-12-20T06:09:10;16.55;;;2.45;;
75459;SDS011;64039;53.060;9.342;2023-12-20T06:11:35;12.00;;;2.42;;
75459;SDS011;64039;53.060;9.342;2023-12-20T06:14:01;12.65;;;1.95;;
75459;SDS011;64039;53.060;9.342;2023-12-20T06:16:27;13.00;;;2.30;;
75459;SDS011;64039;53.060;9.342;2023-12-20T06:18:52;16.27;;;2.35;;
75459;SDS011;64039;53.060;9.342;2023-12-20T06:21:18;14.60;;;2.30;;
75459;SDS011;64039;53.060;9.342;2023-12-20T06:23:43;13.93;;;2.15;;
75459;SDS011;64039;53.060;9.342;2023-12-20T06:26:09;15.77;;;3.17;;
75459;SDS011;64039;53.060;9.342;2023-12-20T06:28:34;16.50;;;2.65;;
75459;SDS011;64039;53.060;9.342;2023-12-20T06:31:00;12.35;;;1.95;;
75459;SDS011;64039;53.060;9.342;2023-12-20T06:33:26;13.95;;;2.50;;
75459;SDS011;64039;53.060;9.342;2023-12-20T06:35:52;11.25;;;1.98;;
75459;SDS011;64039;53.060;9.342;2023-12-20T06:38:17;12.93;;;1.70;;
75459;SDS011;64039;53.060;9.342;2023-12-20T06:40:43;17.52;;;2.35;;
75459;SDS011;64039;53.060;9.342;2023-12-20T06:43:09;18.95;;;3.28;;
75459;SDS011;64039;53.060;9.342;2023-12-20T06:45:34;12.98;;;1.90;;
75459;SDS011;64039;53.060;9.342;2023-12-20T06:48:00;13.18;;;1.92;;
75459;SDS011;64039;53.060;9.342;2023-12-20T06:50:25;17.08;;;2.28;;
75459;SDS011;64039;53.060;9.342;2023-12-20T06:52:51;13.15;;;2.65;;
75459;SDS011;64039;53.060;9.342;2023-12-20T06:55:17;16.13;;;2.65;;
75459;SDS011;64039;53.060;9.342;2023-12-20T06:57:43;15.23;;;2.47;;
75459;SDS011;64039;53.060;9.342;2023-12-20T07:00:08;14.60;;;2.42;;
75459;SDS011;64039;53.060;9.342;2023-12-20T07:02:36;13.60;;;2.05;;
75459;SDS011;64039;53.060;9.342;2023-12-20T07:05:01;16.27;;;2.30;;
75459;SDS011;64039;53.060;9.342;2023-12-20T07:07:26;17.38;;;2.40;;
75459;SDS011;64039;53.060;9.342;2023-12-20T07:09:52;19.13;;;2.22;;
75459;SDS011;64039;53.060;9.342;2023-12-20T07:12:17;18.27;;;2.72;;
75459;SDS011;64039;53.060;9.342;2023-12-20T07:14:46;14.10;;;2.15;;
75459;SDS011;64039;53.060;9.342;2023-12-20T07:17:11;18.60;;;2.53;;
75459;SDS011;64039;53.060;9.342;2023-12-20T07:19:39;13.63;;;2.13;;
75459;SDS011;64039;53.060;9.342;2023-12-20T07:22:05;19.42;;;2.60;;
75459;SDS011;64039;53.060;9.342;2023-12-20T07:24:31;16.20;;;2.50;;
75459;SDS011;64039;53.060;9.342;2023-12-20T07:26:57;11.48;;;2.05;;
75459;SDS011;64039;53.060;9.342;2023-12-20T07:29:22;19.65;;;2.67;;
75459;SDS011;64039;53.060;9.342;2023-12-20T07:31:48;22.05;;;2.88;;
75459;SDS011;64039;53.060;9.342;2023-12-20T07:34:13;19.40;;;2.78;;
75459;SDS011;64039;53.060;9.342;2023-12-20T07:36:39;8.32;;;2.10;;
75459;SDS011;64039;53.060;9.342;2023-12-20T07:39:04;17.08;;;2.80;;
75459;SDS011;64039;53.060;9.342;2023-12-20T07:41:30;13.45;;;2.53;;
75459;SDS011;64039;53.060;9.342;2023-12-20T07:43:55;15.73;;;2.53;;
75459;SDS011;64039;53.060;9.342;2023-12-20T07:46:21;13.40;;;2.28;;
75459;SDS011;64039;53.060;9.342;2023-12-20T07:48:50;15.93;;;2.88;;
75459;SDS011;64039;53.060;9.342;2023-12-20T07:51:15;16.33;;;2.90;;
75459;SDS011;64039;53.060;9.342;2023-12-20T07:53:41;15.25;;;2.45;;
75459;SDS011;64039;53.060;9.342;2023-12-20T07:56:13;17.35;;;3.03;;
75459;SDS011;64039;53.060;9.342;2023-12-20T07:58:40;16.75;;;3.15;;
75459;SDS011;64039;53.060;9.342;2023-12-20T08:01:05;14.48;;;2.88;;
75459;SDS011;64039;53.060;9.342;2023-12-20T08:03:31;13.18;;;2.60;;
75459;SDS011;64039;53.060;9.342;2023-12-20T08:05:57;15.20;;;2.35;;
75459;SDS011;64039;53.060;9.342;2023-12-20T08:08:24;10.07;;;1.98;;
75459;SDS011;64039;53.060;9.342;2023-12-20T08:10:50;16.30;;;3.03;;
75459;SDS011;64039;53.060;9.342;2023-12-20T08:13:15;17.35;;;3.15;;
75459;SDS011;64039;53.060;9.342;2023-12-20T08:15:41;18.65;;;2.67;;
75459;SDS011;64039;53.060;9.342;2023-12-20T08:18:06;17.20;;;2.70;;
75459;SDS011;64039;53.060;9.342;2023-12-20T08:20:32;14.43;;;2.50;;
75459;SDS011;64039;53.060;9.342;2023-12-20T08:22:57;19.00;;;2.45;;
75459;SDS011;64039;53.060;9.342;2023-12-20T08:25:23;21.45;;;6.28;;
75459;SDS011;64039;53.060;9.342;2023-12-20T08:27:48;18.02;;;2.80;;
75459;SDS011;64039;53.060;9.342;2023-12-20T08:30:14;17.52;;;2.78;;
75459;SDS011;64039;53.060;9.342;2023-12-20T08:32:39;16.55;;;2.78;;
75459;SDS011;64039;53.060;9.342;2023-12-20T08:35:04;12.93;;;2.78;;
75459;SDS011;64039;53.060;9.342;2023-12-20T08:37:31;13.77;;;2.80;;
75459;SDS011;64039;53.060;9.342;2023-12-20T08:39:56;13.18;;;2.53;;
75459;SDS011;64039;53.060;9.342;2023-12-20T08:42:22;20.75;;;2.88;;
75459;SDS011;64039;53.060;9.342;2023-12-20T08:44:49;13.00;;;2.33;;
75459;SDS011;64039;53.060;9.342;2023-12-20T08:47:15;18.88;;;2.90;;
75459;SDS011;64039;53.060;9.342;2023-12-20T08:49:41;16.13;;;2.28;;
75459;SDS011;64039;53.060;9.342;2023-12-20T08:52:06;11.52;;;2.13;;
75459;SDS011;64039;53.060;9.342;2023-12-20T08:54:32;14.77;;;2.60;;
75459;SDS011;64039;53.060;9.342;2023-12-20T08:56:57;11.30;;;2.13;;
75459;SDS011;64039;53.060;9.342;2023-12-20T08:59:23;20.42;;;3.08;;
75459;SDS011;64039;53.060;9.342;2023-12-20T09:01:48;17.38;;;3.08;;
75459;SDS011;64039;53.060;9.342;2023-12-20T09:04:19;14.93;;;2.97;;
75459;SDS011;64039;53.060;9.342;2023-12-20T09:06:44;16.33;;;2.92;;
75459;SDS011;64039;53.060;9.342;2023-12-20T09:09:10;17.75;;;2.53;;
75459;SDS011;64039;53.060;9.342;2023-12-20T09:11:38;11.43;;;2.50;;
75459;SDS011;64039;53.060;9.342;2023-12-20T09:14:04;19.30;;;3.05;;
75459;SDS011;64039;53.060;9.342;2023-12-20T09:16:29;16.27;;;3.00;;
75459;SDS011;64039;53.060;9.342;2023-12-20T09:18:56;20.27;;;2.95;;
75459;SDS011;64039;53.060;9.342;2023-12-20T09:21:22;16.80;;;3.25;;
75459;SDS011;64039;53.060;9.342;2023-12-20T09:23:47;18.58;;;2.67;;
75459;SDS011;64039;53.060;9.342;2023-12-20T09:26:13;14.32;;;2.40;;
75459;SDS011;64039;53.060;9.342;2023-12-20T09:28:38;12.57;;;2.10;;
75459;SDS011;64039;53.060;9.342;2023-12-20T09:31:05;9.93;;;2.30;;
75459;SDS011;64039;53.060;9.342;2023-12-20T09:33:31;11.68;;;2.75;;
75459;SDS011;64039;53.060;9.342;2023-12-20T09:35:57;13.32;;;2.17;;
75459;SDS011;64039;53.060;9.342;2023-12-20T09:38:23;13.65;;;2.00;;
75459;SDS011;64039;53.060;9.342;2023-12-20T09:40:48;13.85;;;3.03;;
75459;SDS011;64039;53.060;9.342;2023-12-20T09:43:14;14.02;;;2.50;;
75459;SDS011;64039;53.060;9.342;2023-12-20T09:45:41;7.85;;;1.75;;
75459;SDS011;64039;53.060;9.342;2023-12-20T09:48:10;12.00;;;1.90;;
75459;SDS011;64039;53.060;9.342;2023-12-20T09:50:37;18.10;;;2.42;;
75459;SDS011;64039;53.060;9.342;2023-12-20T09:53:02;17.77;;;2.55;;
75459;SDS011;64039;53.060;9.342;2023-12-20T09:55:30;12.05;;;2.17;;
75459;SDS011;64039;53.060;9.342;2023-12-20T09:57:57;16.63;;;2.72;;
75459;SDS011;64039;53.060;9.342;2023-12-20T10:00:22;17.90;;;2.75;;
75459;SDS011;64039;53.060;9.342;2023-12-20T10:02:56;15.43;;;2.10;;
75459;SDS011;64039;53.060;9.342;2023-12-20T10:05:26;9.93;;;2.08;;
75459;SDS011;64039;53.060;9.342;2023-12-20T10:07:55;4.07;;;0.73;;
75459;SDS011;64039;53.060;9.342;2023-12-20T10:10:21;6.15;;;0.70;;
75459;SDS011;64039;53.060;9.342;2023-12-20T10:13:07;3.78;;;0.90;;
75459;SDS011;64039;53.060;9.342;2023-12-20T10:15:34;9.52;;;1.25;;
75459;SDS011;64039;53.060;9.342;2023-12-20T10:18:00;4.75;;;0.80;;
75459;SDS011;64039;53.060;9.342;2023-12-20T10:20:28;1.92;;;0.40;;
75459;SDS011;64039;53.060;9.342;2023-12-20T10:22:57;2.67;;;0.60;;
75459;SDS011;64039;53.060;9.342;2023-12-20T10:25:24;2.45;;;0.60;;
75459;SDS011;64039;53.060;9.342;2023-12-20T10:27:50;4.97;;;0.65;;
75459;SDS011;64039;53.060;9.342;2023-12-20T10:30:49;3.15;;;0.60;;
75459;SDS011;64039;53.060;9.342;2023-12-20T10:33:24;2.03;;;0.50;;
75459;SDS011;64039;53.060;9.342;2023-12-20T10:35:51;5.30;;;0.82;;
75459;SDS011;64039;53.060;9.342;2023-12-20T10:38:18;5.40;;;0.80;;
75459;SDS011;64039;53.060;9.342;2023-12-20T10:40:43;5.03;;;0.73;;
75459;SDS011;64039;53.060;9.342;2023-12-20T10:43:10;4.28;;;0.73;;
75459;SDS011;64039;53.060;9.342;2023-12-20T10:45:36;4.72;;;0.70;;
75459;SDS011;64039;53.060;9.342;2023-12-20T10:48:02;4.18;;;0.47;;
75459;SDS011;64039;53.060;9.342;2023-12-20T10:50:29;5.00;;;0.68;;
75459;SDS011;64039;53.060;9.342;2023-12-20T10:52:56;2.70;;;0.40;;
75459;SDS011;64039;53.060;9.342;2023-12-20T10:55:23;5.13;;;0.63;;
75459;SDS011;64039;53.060;9.342;2023-12-20T10:57:52;2.78;;;0.40;;
75459;SDS011;64039;53.060;9.342;2023-12-20T11:00:24;1.98;;;0.50;;
75459;SDS011;64039;53.060;9.342;2023-12-20T11:02:50;2.78;;;0.70;;
75459;SDS011;64039;53.060;9.342;2023-12-20T11:05:25;5.28;;;0.80;;
75459;SDS011;64039;53.060;9.342;2023-12-20T11:08:03;5.95;;;0.70;;
75459;SDS011;64039;53.060;9.342;2023-12-20T11:10:55;1.70;;;0.50;;
75459;SDS011;64039;53.060;9.342;2023-12-20T11:13:31;5.65;;;0.77;;
75459;SDS011;64039;53.060;9.342;2023-12-20T11:15:59;5.07;;;0.50;;
75459;SDS011;64039;53.060;9.342;2023-12-20T11:18:28;2.25;;;0.50;;
75459;SDS011;64039;53.060;9.342;2023-12-20T11:21:00;3.55;;;0.70;;
75459;SDS011;64039;53.060;9.342;2023-12-20T11:23:35;2.50;;;0.40;;
75459;SDS011;64039;53.060;9.342;2023-12-20T11:26:01;3.42;;;0.40;;
75459;SDS011;64039;53.060;9.342;2023-12-20T11:28:28;3.63;;;0.80;;
75459;SDS011;64039;53.060;9.342;2023-12-20T11:30:56;3.47;;;0.57;;
75459;SDS011;64039;53.060;9.342;2023-12-20T11:33:45;7.95;;;0.95;;
75459;SDS011;64039;53.060;9.342;2023-12-20T11:36:18;4.70;;;0.60;;
75459;SDS011;64039;53.060;9.342;2023-12-20T11:38:53;3.03;;;0.57;;
75459;SDS011;64039;53.060;9.342;2023-12-20T11:41:25;1.60;;;0.60;;
75459;SDS011;64039;53.060;9.342;2023-12-20T11:43:54;6.97;;;0.98;;
75459;SDS011;64039;53.060;9.342;2023-12-20T11:46:21;4.47;;;0.68;;
75459;SDS011;64039;53.060;9.342;2023-12-20T11:48:47;7.53;;;1.05;;
75459;SDS011;64039;53.060;9.342;2023-12-20T11:51:13;7.22;;;0.63;;
75459;SDS011;64039;53.060;9.342;2023-12-20T11:53:39;8.25;;;0.90;;
75459;SDS011;64039;53.060;9.342;2023-12-20T11:56:06;7.20;;;0.80;;
75459;SDS011;64039;53.060;9.342;2023-12-20T11:58:32;7.75;;;1.00;;
75459;SDS011;64039;53.060;9.342;2023-12-20T12:00:57;7.45;;;0.93;;
75459;SDS011;64039;53.060;9.342;2023-12-20T12:03:23;5.45;;;0.80;;
75459;SDS011;64039;53.060;9.342;2023-12-20T12:05:49;7.35;;;0.80;;
75459;SDS011;64039;53.060;9.342;2023-12-20T12:08:14;7.55;;;0.90;;
75459;SDS011;64039;53.060;9.342;2023-12-20T12:10:40;6.70;;;1.17;;
75459;SDS011;64039;53.060;9.342;2023-12-20T12:13:06;5.85;;;1.20;;
75459;SDS011;64039;53.060;9.342;2023-12-20T12:15:31;7.93;;;1.10;;
75459;SDS011;64039;53.060;9.342;2023-12-20T12:17:57;8.70;;;1.10;;
75459;SDS011;64039;53.060;9.342;2023-12-20T12:20:24;10.05;;;0.90;;
75459;SDS011;64039;53.060;9.342;2023-12-20T12:23:03;5.22;;;1.02;;
75459;SDS011;64039;53.060;9.342;2023-12-20T12:25:30;6.90;;;1.00;;
75459;SDS011;64039;53.060;9.342;2023-12-20T12:27:59;8.48;;;1.05;;
75459;SDS011;64039;53.060;9.342;2023-12-20T12:30:25;6.75;;;1.67;;
75459;SDS011;64039;53.060;9.342;2023-12-20T12:32:53;7.00;;;0.82;;
75459;SDS011;64039;53.060;9.342;2023-12-20T12:35:21;9.82;;;1.42;;
75459;SDS011;64039;53.060;9.342;2023-12-20T12:37:47;5.47;;;1.00;;
75459;SDS011;64039;53.060;9.342;2023-12-20T12:40:13;9.77;;;1.33;;
75459;SDS011;64039;53.060;9.342;2023-12-20T12:42:41;12.13;;;1.38;;
75459;SDS011;64039;53.060;9.342;2023-12-20T12:45:08;11.40;;;1.52;;
75459;SDS011;64039;53.060;9.342;2023-12-20T12:47:34;10.63;;;1.23;;
75459;SDS011;64039;53.060;9.342;2023-12-20T12:50:00;11.23;;;1.35;;
75459;SDS011;64039;53.060;9.342;2023-12-20T12:52:26;6.35;;;1.17;;
75459;SDS011;64039;53.060;9.342;2023-12-20T12:54:52;12.63;;;2.13;;
75459;SDS011;64039;53.060;9.342;2023-12-20T12:57:17;8.10;;;1.15;;
75459;SDS011;64039;53.060;9.342;2023-12-20T12:59:44;7.22;;;1.20;;
75459;SDS011;64039;53.060;9.342;2023-12-20T13:02:11;8.10;;;1.25;;
75459;SDS011;64039;53.060;9.342;2023-12-20T13:04:40;8.73;;;1.20;;
75459;SDS011;64039;53.060;9.342;2023-12-20T13:07:06;8.23;;;1.20;;
75459;SDS011;64039;53.060;9.342;2023-12-20T13:09:33;5.38;;;0.73;;
75459;SDS011;64039;53.060;9.342;2023-12-20T13:11:58;6.53;;;1.00;;
75459;SDS011;64039;53.060;9.342;2023-12-20T13:14:24;5.30;;;0.80;;
75459;SDS011;64039;53.060;9.342;2023-12-20T13:16:49;6.75;;;1.00;;
75459;SDS011;64039;53.060;9.342;2023-12-20T13:19:15;3.03;;;0.75;;
75459;SDS011;64039;53.060;9.342;2023-12-20T13:21:40;5.82;;;0.70;;
75459;SDS011;64039;53.060;9.342;2023-12-20T13:24:06;7.13;;;0.82;;
75459;SDS011;64039;53.060;9.342;2023-12-20T13:26:31;7.25;;;1.30;;
75459;SDS011;64039;53.060;9.342;2023-12-20T13:28:58;7.47;;;0.95;;
75459;SDS011;64039;53.060;9.342;2023-12-20T13:31:23;6.07;;;1.30;;
75459;SDS011;64039;53.060;9.342;2023-12-20T13:33:49;10.27;;;1.50;;
75459;SDS011;64039;53.060;9.342;2023-12-20T13:36:15;5.15;;;1.10;;
75459;SDS011;64039;53.060;9.342;2023-12-20T13:38:40;10.80;;;1.48;;
75459;SDS011;64039;53.060;9.342;2023-12-20T13:41:06;6.30;;;1.20;;
75459;SDS011;64039;53.060;9.342;2023-12-20T13:43:31;6.78;;;1.30;;
75459;SDS011;64039;53.060;9.342;2023-12-20T13:46:00;5.53;;;1.00;;
75459;SDS011;64039;53.060;9.342;2023-12-20T13:48:26;7.47;;;1.60;;
75459;SDS011;64039;53.060;9.342;2023-12-20T13:50:51;11.85;;;1.40;;
75459;SDS011;64039;53.060;9.342;2023-12-20T13:53:17;10.68;;;1.23;;
75459;SDS011;64039;53.060;9.342;2023-12-20T13:55:43;7.43;;;1.20;;
75459;SDS011;64039;53.060;9.342;2023-12-20T13:58:08;16.90;;;1.77;;
75459;SDS011;64039;53.060;9.342;2023-12-20T14:00:35;16.30;;;1.45;;
75459;SDS011;64039;53.060;9.342;2023-12-20T14:03:02;13.70;;;1.88;;
75459;SDS011;64039;53.060;9.342;2023-12-20T14:05:28;10.18;;;1.63;;
75459;SDS011;64039;53.060;9.342;2023-12-20T14:07:53;11.75;;;1.90;;
75459;SDS011;64039;53.060;9.342;2023-12-20T14:10:19;9.20;;;1.27;;
75459;SDS011;64039;53.060;9.342;2023-12-20T14:12:44;8.43;;;1.08;;
75459;SDS011;64039;53.060;9.342;2023-12-20T14:15:10;11.05;;;1.77;;
75459;SDS011;64039;53.060;9.342;2023-12-20T14:17:38;10.15;;;1.40;;
75459;SDS011;64039;53.060;9.342;2023-12-20T14:20:07;8.70;;;1.85;;
75459;SDS011;64039;53.060;9.342;2023-12-20T14:22:33;12.20;;;1.23;;
75459;SDS011;64039;53.060;9.342;2023-12-20T14:24:59;13.00;;;3.30;;
75459;SDS011;64039;53.060;9.342;2023-12-20T14:27:25;9.00;;;1.65;;
75459;SDS011;64039;53.060;9.342;2023-12-20T14:29:53;10.85;;;1.63;;
75459;SDS011;64039;53.060;9.342;2023-12-20T14:32:19;14.20;;;1.70;;
75459;SDS011;64039;53.060;9.342;2023-12-20T14:34:44;8.65;;;1.45;;
75459;SDS011;64039;53.060;9.342;2023-12-20T14:37:09;10.60;;;1.38;;